sensor_id;sensor_type;location;lat;lon;timestamp;pressure;altitude;pressure_sealevel;temperature;humidity
68594;BME280;55563;52.416;13.548;2023-06-19T00:01:02;100947.09;;;17.36;100.00
68594;BME280;55563;52.416;13.548;2023-06-19T00:03:03;100947.09;;;17.36;100.00
68594;BME280;55563;52.416;13.548;2023-06-19T00:05:04;100947.09;;;17.36;100.00
68594;BME280;55563;52.416;13.548;2023-06-19T00:07:04;100941.75;;;17.22;100.00
68594;BME280;55563;52.416;13.548;2023-06-19T00:09:06;100940.50;;;17.20;100.00
68594;BME280;55563;52.416;13.548;2023-06-19T00:11:07;100945.72;;;17.11;100.00
68594;BME280;55563;52.416;13.548;2023-06-19T00:13:08;100952.38;;;17.22;100.00
68594;BME280;55563;52.416;13.548;2023-06-19T00:15:09;100955.34;;;17.07;100.00
68594;BME280;55563;52.416;13.548;2023-06-19T00:17:10;100948.91;;;16.94;100.00
68594;BME280;55563;52.416;13.548;2023-06-19T00:19:11;100944.22;;;16.91;100.00
68594;BME280;55563;52.416;13.548;2023-06-19T00:21:12;100946.34;;;16.89;100.00
68594;BME280;55563;52.416;13.548;2023-06-19T00:23:13;100938.91;;;17.19;100.00
68594;BME280;55563;52.416;13.548;2023-06-19T00:25:18;100935.56;;;17.27;100.00
68594;BME280;55563;52.416;13.548;2023-06-19T00:27:20;100939.81;;;17.14;100.00
68594;BME280;55563;52.416;13.548;2023-06-19T00:29:21;100939.81;;;17.14;100.00
68594;BME280;55563;52.416;13.548;2023-06-19T00:31:24;100945.31;;;17.18;100.00
68594;BME280;55563;52.416;13.548;2023-06-19T00:33:26;100944.72;;;17.07;100.00
68594;BME280;55563;52.416;13.548;2023-06-19T00:35:27;100951.72;;;17.17;100.00
68594;BME280;55563;52.416;13.548;2023-06-19T00:37:28;100951.41;;;17.18;100.00
68594;BME280;55563;52.416;13.548;2023-06-19T00:39:33;100947.56;;;17.11;100.00
68594;BME280;55563;52.416;13.548;2023-06-19T00:41:35;100942.44;;;17.00;100.00
68594;BME280;55563;52.416;13.548;2023-06-19T00:43:36;100944.13;;;17.10;100.00
68594;BME280;55563;52.416;13.548;2023-06-19T00:45:36;100946.59;;;17.20;100.00
68594;BME280;55563;52.416;13.548;2023-06-19T00:47:37;100946.59;;;17.20;100.00
68594;BME280;55563;52.416;13.548;2023-06-19T00:49:38;100944.03;;;17.15;100.00
68594;BME280;55563;52.416;13.548;2023-06-19T00:51:39;100943.25;;;17.15;100.00
68594;BME280;55563;52.416;13.548;2023-06-19T00:53:40;100947.88;;;17.09;100.00
68594;BME280;55563;52.416;13.548;2023-06-19T00:55:41;100952.88;;;17.11;100.00
68594;BME280;55563;52.416;13.548;2023-06-19T00:57:43;100946.78;;;17.10;100.00
68594;BME280;55563;52.416;13.548;2023-06-19T00:59:44;100949.03;;;17.03;100.00
68594;BME280;55563;52.416;13.548;2023-06-19T01:01:45;100946.47;;;16.98;100.00
68594;BME280;55563;52.416;13.548;2023-06-19T01:03:47;100953.84;;;17.01;100.00
68594;BME280;55563;52.416;13.548;2023-06-19T01:05:49;100949.72;;;16.95;100.00
68594;BME280;55563;52.416;13.548;2023-06-19T01:08:17;100948.91;;;16.94;100.00
68594;BME280;55563;52.416;13.548;2023-06-19T01:10:29;100954.50;;;16.93;100.00
68594;BME280;55563;52.416;13.548;2023-06-19T01:12:35;100938.50;;;16.98;100.00
68594;BME280;55563;52.416;13.548;2023-06-19T01:14:45;100937.03;;;17.06;100.00
68594;BME280;55563;52.416;13.548;2023-06-19T01:16:48;100939.50;;;17.16;100.00
68594;BME280;55563;52.416;13.548;2023-06-19T01:18:50;100927.50;;;17.18;100.00
68594;BME280;55563;52.416;13.548;2023-06-19T01:20:51;100929.78;;;17.11;100.00
68594;BME280;55563;52.416;13.548;2023-06-19T01:22:51;100928.47;;;17.09;100.00
68594;BME280;55563;52.416;13.548;2023-06-19T01:24:57;100925.44;;;17.02;100.00
68594;BME280;55563;52.416;13.548;2023-06-19T01:26:57;100932.09;;;16.99;100.00
68594;BME280;55563;52.416;13.548;2023-06-19T01:28:58;100920.59;;;17.04;100.00
68594;BME280;55563;52.416;13.548;2023-06-19T01:30:59;100926.13;;;17.07;100.00
68594;BME280;55563;52.416;13.548;2023-06-19T01:33:23;100929.19;;;17.14;100.00
68594;BME280;55563;52.416;13.548;2023-06-19T01:35:30;100927.13;;;17.11;100.00
68594;BME280;55563;52.416;13.548;2023-06-19T01:37:32;100922.97;;;17.05;100.00
68594;BME280;55563;52.416;13.548;2023-06-19T01:39:34;100929.41;;;16.72;100.00
68594;BME280;55563;52.416;13.548;2023-06-19T01:41:36;100919.00;;;16.89;100.00
68594;BME280;55563;52.416;13.548;2023-06-19T01:43:38;100923.06;;;16.86;100.00
68594;BME280;55563;52.416;13.548;2023-06-19T01:45:40;100918.88;;;16.67;100.00
68594;BME280;55563;52.416;13.548;2023-06-19T01:47:41;100915.78;;;16.78;100.00
68594;BME280;55563;52.416;13.548;2023-06-19T01:49:42;100913.03;;;16.83;100.00
68594;BME280;55563;52.416;13.548;2023-06-19T01:51:43;100912.72;;;16.85;100.00
68594;BME280;55563;52.416;13.548;2023-06-19T01:53:43;100912.03;;;16.93;100.00
68594;BME280;55563;52.416;13.548;2023-06-19T01:55:44;100906.13;;;16.82;100.00
68594;BME280;55563;52.416;13.548;2023-06-19T01:57:44;100912.41;;;16.73;100.00
68594;BME280;55563;52.416;13.548;2023-06-19T01:59:46;100902.03;;;16.57;100.00
68594;BME280;55563;52.416;13.548;2023-06-19T02:01:47;100901.69;;;16.64;100.00
68594;BME280;55563;52.416;13.548;2023-06-19T02:03:47;100903.66;;;16.72;100.00
68594;BME280;55563;52.416;13.548;2023-06-19T02:05:48;100900.50;;;16.70;100.00
68594;BME280;55563;52.416;13.548;2023-06-19T02:07:50;100898.31;;;16.59;100.00
68594;BME280;55563;52.416;13.548;2023-06-19T02:09:50;100898.81;;;16.61;100.00
68594;BME280;55563;52.416;13.548;2023-06-19T02:11:51;100899.97;;;16.54;100.00
68594;BME280;55563;52.416;13.548;2023-06-19T02:13:52;100893.41;;;16.66;100.00
68594;BME280;55563;52.416;13.548;2023-06-19T02:15:52;100888.53;;;16.73;100.00
68594;BME280;55563;52.416;13.548;2023-06-19T02:17:55;100890.47;;;16.67;100.00
68594;BME280;55563;52.416;13.548;2023-06-19T02:19:56;100892.63;;;16.65;100.00
68594;BME280;55563;52.416;13.548;2023-06-19T02:21:57;100885.38;;;16.71;100.00
68594;BME280;55563;52.416;13.548;2023-06-19T02:24:00;100887.91;;;16.62;100.00
68594;BME280;55563;52.416;13.548;2023-06-19T02:26:01;100893.28;;;16.57;100.00
68594;BME280;55563;52.416;13.548;2023-06-19T02:28:01;100888.91;;;16.66;100.00
68594;BME280;55563;52.416;13.548;2023-06-19T02:30:04;100892.94;;;16.64;100.00
68594;BME280;55563;52.416;13.548;2023-06-19T02:32:06;100889.09;;;16.70;100.00
68594;BME280;55563;52.416;13.548;2023-06-19T02:34:08;100888.00;;;16.71;100.00
68594;BME280;55563;52.416;13.548;2023-06-19T02:36:09;100888.41;;;16.64;100.00
68594;BME280;55563;52.416;13.548;2023-06-19T02:38:10;100888.50;;;16.59;100.00
68594;BME280;55563;52.416;13.548;2023-06-19T02:40:13;100884.53;;;16.56;100.00
68594;BME280;55563;52.416;13.548;2023-06-19T02:42:14;100882.41;;;16.59;100.00
68594;BME280;55563;52.416;13.548;2023-06-19T02:44:17;100879.81;;;16.53;100.00
68594;BME280;55563;52.416;13.548;2023-06-19T02:46:18;100880.53;;;16.59;100.00
68594;BME280;55563;52.416;13.548;2023-06-19T02:48:18;100883.91;;;16.46;100.00
68594;BME280;55563;52.416;13.548;2023-06-19T02:50:19;100875.38;;;16.49;100.00
68594;BME280;55563;52.416;13.548;2023-06-19T02:52:20;100881.63;;;16.58;100.00
68594;BME280;55563;52.416;13.548;2023-06-19T02:54:21;100883.19;;;16.59;100.00
68594;BME280;55563;52.416;13.548;2023-06-19T02:56:22;100878.28;;;16.66;100.00
68594;BME280;55563;52.416;13.548;2023-06-19T02:58:23;100877.63;;;16.55;100.00
68594;BME280;55563;52.416;13.548;2023-06-19T03:00:23;100876.31;;;16.58;100.00
68594;BME280;55563;52.416;13.548;2023-06-19T03:02:24;100880.66;;;16.68;100.00
68594;BME280;55563;52.416;13.548;2023-06-19T03:04:25;100873.38;;;16.73;100.00
68594;BME280;55563;52.416;13.548;2023-06-19T03:06:27;100876.94;;;16.82;100.00
68594;BME280;55563;52.416;13.548;2023-06-19T03:08:28;100874.75;;;16.98;100.00
68594;BME280;55563;52.416;13.548;2023-06-19T03:10:29;100876.66;;;17.11;100.00
68594;BME280;55563;52.416;13.548;2023-06-19T03:12:29;100878.72;;;17.14;100.00
68594;BME280;55563;52.416;13.548;2023-06-19T03:14:30;100877.91;;;17.14;100.00
68594;BME280;55563;52.416;13.548;2023-06-19T03:16:31;100878.09;;;17.04;100.00
68594;BME280;55563;52.416;13.548;2023-06-19T03:18:32;100876.53;;;17.02;100.00
68594;BME280;55563;52.416;13.548;2023-06-19T03:20:33;100880.97;;;17.21;100.00
68594;BME280;55563;52.416;13.548;2023-06-19T03:22:36;100878.56;;;17.74;100.00
68594;BME280;55563;52.416;13.548;2023-06-19T03:24:36;100878.16;;;18.25;100.00
68594;BME280;55563;52.416;13.548;2023-06-19T03:26:49;100885.41;;;18.86;100.00
68594;BME280;55563;52.416;13.548;2023-06-19T03:28:49;100882.69;;;19.08;100.00
68594;BME280;55563;52.416;13.548;2023-06-19T03:30:50;100890.19;;;18.45;100.00
68594;BME280;55563;52.416;13.548;2023-06-19T03:32:55;100880.69;;;17.85;100.00
68594;BME280;55563;52.416;13.548;2023-06-19T03:35:11;100885.44;;;17.75;100.00
68594;BME280;55563;52.416;13.548;2023-06-19T03:37:17;100887.13;;;17.57;100.00
68594;BME280;55563;52.416;13.548;2023-06-19T03:39:18;100890.31;;;17.59;100.00
68594;BME280;55563;52.416;13.548;2023-06-19T03:41:19;100890.28;;;17.73;100.00
68594;BME280;55563;52.416;13.548;2023-06-19T03:43:19;100899.94;;;17.69;100.00
68594;BME280;55563;52.416;13.548;2023-06-19T03:45:20;100891.84;;;17.60;100.00
68594;BME280;55563;52.416;13.548;2023-06-19T03:47:21;100895.63;;;17.59;100.00
68594;BME280;55563;52.416;13.548;2023-06-19T03:49:22;100892.44;;;17.57;100.00
68594;BME280;55563;52.416;13.548;2023-06-19T03:51:24;100898.28;;;17.59;100.00
68594;BME280;55563;52.416;13.548;2023-06-19T03:53:25;100916.59;;;17.33;100.00
68594;BME280;55563;52.416;13.548;2023-06-19T03:55:28;100903.19;;;17.52;100.00
68594;BME280;55563;52.416;13.548;2023-06-19T03:57:29;100913.53;;;17.54;100.00
68594;BME280;55563;52.416;13.548;2023-06-19T03:59:30;100908.38;;;17.57;100.00
68594;BME280;55563;52.416;13.548;2023-06-19T04:01:30;100910.88;;;17.40;100.00
68594;BME280;55563;52.416;13.548;2023-06-19T04:03:31;100913.69;;;17.57;100.00
68594;BME280;55563;52.416;13.548;2023-06-19T04:05:32;100901.72;;;17.60;100.00
68594;BME280;55563;52.416;13.548;2023-06-19T04:07:33;100908.59;;;17.61;100.00
68594;BME280;55563;52.416;13.548;2023-06-19T04:09:33;100907.81;;;17.47;100.00
68594;BME280;55563;52.416;13.548;2023-06-19T04:11:35;100904.69;;;17.31;100.00
68594;BME280;55563;52.416;13.548;2023-06-19T04:13:39;100906.56;;;17.30;100.00
68594;BME280;55563;52.416;13.548;2023-06-19T04:15:40;100903.69;;;17.27;100.00
68594;BME280;55563;52.416;13.548;2023-06-19T04:17:41;100888.75;;;17.31;100.00
68594;BME280;55563;52.416;13.548;2023-06-19T04:19:42;100884.81;;;17.15;100.00
68594;BME280;55563;52.416;13.548;2023-06-19T04:21:43;100876.66;;;17.11;100.00
68594;BME280;55563;52.416;13.548;2023-06-19T04:23:44;100878.00;;;17.09;100.00
68594;BME280;55563;52.416;13.548;2023-06-19T04:25:44;100874.47;;;17.13;100.00
68594;BME280;55563;52.416;13.548;2023-06-19T04:27:45;100877.53;;;17.20;100.00
68594;BME280;55563;52.416;13.548;2023-06-19T04:29:46;100880.53;;;17.41;100.00
68594;BME280;55563;52.416;13.548;2023-06-19T04:31:46;100875.25;;;17.27;100.00
68594;BME280;55563;52.416;13.548;2023-06-19T04:33:47;100872.91;;;17.26;100.00
68594;BME280;55563;52.416;13.548;2023-06-19T04:35:48;100873.69;;;17.26;100.00
68594;BME280;55563;52.416;13.548;2023-06-19T04:37:49;100874.69;;;17.30;100.00
68594;BME280;55563;52.416;13.548;2023-06-19T04:39:50;100882.13;;;17.28;100.00
68594;BME280;55563;52.416;13.548;2023-06-19T04:41:50;100897.19;;;17.33;100.00
68594;BME280;55563;52.416;13.548;2023-06-19T04:43:51;100891.31;;;17.36;100.00
68594;BME280;55563;52.416;13.548;2023-06-19T04:45:51;100898.66;;;17.39;100.00
68594;BME280;55563;52.416;13.548;2023-06-19T04:47:52;100899.16;;;17.41;100.00
68594;BME280;55563;52.416;13.548;2023-06-19T04:49:53;100903.59;;;17.46;100.00
68594;BME280;55563;52.416;13.548;2023-06-19T04:51:53;100889.78;;;17.57;100.00
68594;BME280;55563;52.416;13.548;2023-06-19T04:53:54;100893.94;;;17.63;100.00
68594;BME280;55563;52.416;13.548;2023-06-19T04:55:55;100891.53;;;17.75;100.00
68594;BME280;55563;52.416;13.548;2023-06-19T04:57:56;100903.34;;;17.83;100.00
68594;BME280;55563;52.416;13.548;2023-06-19T04:59:56;100900.47;;;17.79;100.00
68594;BME280;55563;52.416;13.548;2023-06-19T05:01:57;100914.00;;;17.83;100.00
68594;BME280;55563;52.416;13.548;2023-06-19T05:03:58;100912.00;;;17.89;100.00
68594;BME280;55563;52.416;13.548;2023-06-19T05:06:00;100916.06;;;17.72;100.00
68594;BME280;55563;52.416;13.548;2023-06-19T05:08:01;100918.72;;;17.72;100.00
68594;BME280;55563;52.416;13.548;2023-06-19T05:10:01;100918.34;;;17.65;100.00
68594;BME280;55563;52.416;13.548;2023-06-19T05:12:02;100919.91;;;17.66;100.00
68594;BME280;55563;52.416;13.548;2023-06-19T05:14:03;100913.81;;;17.66;100.00
68594;BME280;55563;52.416;13.548;2023-06-19T05:16:04;100919.72;;;17.63;100.00
68594;BME280;55563;52.416;13.548;2023-06-19T05:18:05;100931.34;;;17.67;100.00
68594;BME280;55563;52.416;13.548;2023-06-19T05:20:06;100925.56;;;17.65;100.00
68594;BME280;55563;52.416;13.548;2023-06-19T05:22:07;100922.47;;;17.71;100.00
68594;BME280;55563;52.416;13.548;2023-06-19T05:24:08;100914.78;;;17.70;100.00
68594;BME280;55563;52.416;13.548;2023-06-19T05:26:09;100917.75;;;17.68;100.00
68594;BME280;55563;52.416;13.548;2023-06-19T05:28:09;100919.91;;;17.66;100.00
68594;BME280;55563;52.416;13.548;2023-06-19T05:30:10;100928.56;;;17.72;100.00
68594;BME280;55563;52.416;13.548;2023-06-19T05:32:12;100921.38;;;17.72;100.00
68594;BME280;55563;52.416;13.548;2023-06-19T05:34:13;100927.22;;;17.74;100.00
68594;BME280;55563;52.416;13.548;2023-06-19T05:36:14;100930.22;;;17.81;100.00
68594;BME280;55563;52.416;13.548;2023-06-19T05:38:14;100929.72;;;17.93;100.00
68594;BME280;55563;52.416;13.548;2023-06-19T05:40:15;100931.94;;;18.00;100.00
68594;BME280;55563;52.416;13.548;2023-06-19T05:42:16;100929.91;;;17.97;100.00
68594;BME280;55563;52.416;13.548;2023-06-19T05:44:17;100924.50;;;17.88;100.00
68594;BME280;55563;52.416;13.548;2023-06-19T05:46:19;100926.06;;;17.89;100.00
68594;BME280;55563;52.416;13.548;2023-06-19T05:48:19;100931.94;;;18.00;100.00
68594;BME280;55563;52.416;13.548;2023-06-19T05:50:20;100940.31;;;18.07;100.00
68594;BME280;55563;52.416;13.548;2023-06-19T05:52:21;100936.09;;;18.06;100.00
68594;BME280;55563;52.416;13.548;2023-06-19T05:54:21;100931.66;;;18.01;100.00
68594;BME280;55563;52.416;13.548;2023-06-19T05:56:22;100938.25;;;18.04;100.00
68594;BME280;55563;52.416;13.548;2023-06-19T05:58:22;100936.59;;;18.08;100.00
68594;BME280;55563;52.416;13.548;2023-06-19T06:00:25;100935.91;;;18.02;100.00
68594;BME280;55563;52.416;13.548;2023-06-19T06:02:26;100926.53;;;18.05;100.00
68594;BME280;55563;52.416;13.548;2023-06-19T06:04:29;100924.66;;;18.05;100.00
68594;BME280;55563;52.416;13.548;2023-06-19T06:06:31;100932.22;;;18.12;100.00
68594;BME280;55563;52.416;13.548;2023-06-19T06:08:31;100918.94;;;18.12;100.00
68594;BME280;55563;52.416;13.548;2023-06-19T06:10:32;100921.66;;;18.20;100.00
68594;BME280;55563;52.416;13.548;2023-06-19T06:12:33;100916.72;;;18.14;100.00
68594;BME280;55563;52.416;13.548;2023-06-19T06:14:35;100913.84;;;18.24;100.00
68594;BME280;55563;52.416;13.548;2023-06-19T06:16:35;100916.66;;;18.27;100.00
68594;BME280;55563;52.416;13.548;2023-06-19T06:18:36;100921.53;;;18.25;100.00
68594;BME280;55563;52.416;13.548;2023-06-19T06:20:37;100914.09;;;18.36;100.00
68594;BME280;55563;52.416;13.548;2023-06-19T06:22:39;100919.28;;;18.41;100.00
68594;BME280;55563;52.416;13.548;2023-06-19T06:24:40;100926.25;;;18.51;100.00
68594;BME280;55563;52.416;13.548;2023-06-19T06:26:40;100923.25;;;18.52;100.00
68594;BME280;55563;52.416;13.548;2023-06-19T06:28:41;100920.13;;;18.50;100.00
68594;BME280;55563;52.416;13.548;2023-06-19T06:30:42;100925.66;;;18.54;100.00
68594;BME280;55563;52.416;13.548;2023-06-19T06:32:43;100929.56;;;18.56;100.00
68594;BME280;55563;52.416;13.548;2023-06-19T06:34:43;100928.25;;;18.67;100.00
68594;BME280;55563;52.416;13.548;2023-06-19T06:36:44;100929.81;;;18.68;100.00
68594;BME280;55563;52.416;13.548;2023-06-19T06:38:45;100925.41;;;18.64;100.00
68594;BME280;55563;52.416;13.548;2023-06-19T06:40:46;100921.84;;;18.68;100.00
68594;BME280;55563;52.416;13.548;2023-06-19T06:42:47;100931.88;;;18.71;100.00
68594;BME280;55563;52.416;13.548;2023-06-19T06:44:47;100931.16;;;18.80;100.00
68594;BME280;55563;52.416;13.548;2023-06-19T06:46:48;100934.44;;;18.85;100.00
68594;BME280;55563;52.416;13.548;2023-06-19T06:48:50;100934.00;;;18.92;100.00
68594;BME280;55563;52.416;13.548;2023-06-19T06:50:53;100932.16;;;19.01;100.00
68594;BME280;55563;52.416;13.548;2023-06-19T06:53:00;100939.41;;;19.09;100.00
68594;BME280;55563;52.416;13.548;2023-06-19T06:55:01;100942.72;;;19.14;100.00
68594;BME280;55563;52.416;13.548;2023-06-19T06:57:02;100937.25;;;19.20;100.00
68594;BME280;55563;52.416;13.548;2023-06-19T06:59:02;100938.22;;;19.24;100.00
68594;BME280;55563;52.416;13.548;2023-06-19T07:01:03;100934.63;;;19.28;100.00
68594;BME280;55563;52.416;13.548;2023-06-19T07:03:04;100935.72;;;19.27;100.00
68594;BME280;55563;52.416;13.548;2023-06-19T07:05:06;100934.47;;;19.33;100.00
68594;BME280;55563;52.416;13.548;2023-06-19T07:07:07;100941.19;;;19.22;100.00
68594;BME280;55563;52.416;13.548;2023-06-19T07:09:09;100937.59;;;19.27;100.00
68594;BME280;55563;52.416;13.548;2023-06-19T07:11:10;100941.25;;;19.39;100.00
68594;BME280;55563;52.416;13.548;2023-06-19T07:13:10;100944.59;;;19.45;100.00
68594;BME280;55563;52.416;13.548;2023-06-19T07:15:11;100948.94;;;19.41;100.00
68594;BME280;55563;52.416;13.548;2023-06-19T07:17:12;100954.94;;;19.46;100.00
68594;BME280;55563;52.416;13.548;2023-06-19T07:19:13;100947.13;;;19.50;100.00
68594;BME280;55563;52.416;13.548;2023-06-19T07:21:14;100953.88;;;19.56;100.00
68594;BME280;55563;52.416;13.548;2023-06-19T07:23:15;100949.03;;;19.67;100.00
68594;BME280;55563;52.416;13.548;2023-06-19T07:25:16;100936.34;;;19.89;100.00
68594;BME280;55563;52.416;13.548;2023-06-19T07:27:17;100941.53;;;19.94;100.00
68594;BME280;55563;52.416;13.548;2023-06-19T07:29:17;100937.75;;;19.95;100.00
68594;BME280;55563;52.416;13.548;2023-06-19T07:31:18;100932.75;;;19.94;100.00
68594;BME280;55563;52.416;13.548;2023-06-19T07:33:19;100933.34;;;19.91;100.00
68594;BME280;55563;52.416;13.548;2023-06-19T07:35:19;100934.63;;;20.02;100.00
68594;BME280;55563;52.416;13.548;2023-06-19T07:37:20;100941.69;;;20.15;100.00
68594;BME280;55563;52.416;13.548;2023-06-19T07:39:20;100945.19;;;20.33;100.00
68594;BME280;55563;52.416;13.548;2023-06-19T07:41:21;100945.31;;;20.45;100.00
68594;BME280;55563;52.416;13.548;2023-06-19T07:43:22;100942.31;;;20.55;100.00
68594;BME280;55563;52.416;13.548;2023-06-19T07:45:23;100937.44;;;20.66;100.00
68594;BME280;55563;52.416;13.548;2023-06-19T07:47:26;100938.53;;;20.65;100.00
68594;BME280;55563;52.416;13.548;2023-06-19T07:49:27;100931.78;;;20.59;100.00
68594;BME280;55563;52.416;13.548;2023-06-19T07:51:27;100941.16;;;20.73;100.00
68594;BME280;55563;52.416;13.548;2023-06-19T07:53:28;100942.22;;;20.89;100.00
68594;BME280;55563;52.416;13.548;2023-06-19T07:55:28;100943.94;;;20.94;100.00
68594;BME280;55563;52.416;13.548;2023-06-19T07:57:29;100942.50;;;20.97;100.00
68594;BME280;55563;52.416;13.548;2023-06-19T07:59:30;100950.81;;;21.04;100.00
68594;BME280;55563;52.416;13.548;2023-06-19T08:01:30;100950.50;;;21.14;100.00
68594;BME280;55563;52.416;13.548;2023-06-19T08:03:31;100951.06;;;21.28;100.00
68594;BME280;55563;52.416;13.548;2023-06-19T08:05:32;100946.78;;;21.36;100.00
68594;BME280;55563;52.416;13.548;2023-06-19T08:07:32;100945.34;;;21.38;100.00
68594;BME280;55563;52.416;13.548;2023-06-19T08:09:33;100941.09;;;21.37;100.00
68594;BME280;55563;52.416;13.548;2023-06-19T08:11:33;100941.28;;;21.32;100.00
68594;BME280;55563;52.416;13.548;2023-06-19T08:13:35;100947.06;;;21.43;100.00
68594;BME280;55563;52.416;13.548;2023-06-19T08:15:36;100951.63;;;21.42;100.00
68594;BME280;55563;52.416;13.548;2023-06-19T08:17:36;100949.69;;;21.51;100.00
68594;BME280;55563;52.416;13.548;2023-06-19T08:19:37;100948.72;;;21.56;100.00
68594;BME280;55563;52.416;13.548;2023-06-19T08:21:39;100943.91;;;21.70;100.00
68594;BME280;55563;52.416;13.548;2023-06-19T08:23:40;100955.38;;;22.00;100.00
68594;BME280;55563;52.416;13.548;2023-06-19T08:25:43;100943.13;;;21.90;100.00
68594;BME280;55563;52.416;13.548;2023-06-19T08:27:44;100945.34;;;21.88;100.00
68594;BME280;55563;52.416;13.548;2023-06-19T08:29:45;100945.03;;;21.90;100.00
68594;BME280;55563;52.416;13.548;2023-06-19T08:31:46;100943.44;;;21.89;100.00
68594;BME280;55563;52.416;13.548;2023-06-19T08:33:47;100951.41;;;22.06;100.00
68594;BME280;55563;52.416;13.548;2023-06-19T08:35:49;100948.28;;;22.16;100.00
68594;BME280;55563;52.416;13.548;2023-06-19T08:37:49;100945.56;;;22.25;100.00
68594;BME280;55563;52.416;13.548;2023-06-19T08:39:50;100951.56;;;22.22;100.00
68594;BME280;55563;52.416;13.548;2023-06-19T08:41:50;100949.38;;;22.36;100.00
68594;BME280;55563;52.416;13.548;2023-06-19T08:43:54;100942.00;;;22.33;100.00
68594;BME280;55563;52.416;13.548;2023-06-19T08:46:13;100948.94;;;22.34;100.00
68594;BME280;55563;52.416;13.548;2023-06-19T08:48:14;100947.69;;;22.31;100.00
68594;BME280;55563;52.416;13.548;2023-06-19T08:50:15;100942.53;;;22.26;100.00
68594;BME280;55563;52.416;13.548;2023-06-19T08:52:16;100946.47;;;22.29;100.00
68594;BME280;55563;52.416;13.548;2023-06-19T08:54:17;100946.75;;;22.15;100.00
68594;BME280;55563;52.416;13.548;2023-06-19T08:56:18;100945.78;;;22.32;100.00
68594;BME280;55563;52.416;13.548;2023-06-19T08:58:22;100946.25;;;22.34;100.00
68594;BME280;55563;52.416;13.548;2023-06-19T09:00:25;100939.34;;;22.33;100.00
68594;BME280;55563;52.416;13.548;2023-06-19T09:02:37;100942.13;;;22.36;100.00
68594;BME280;55563;52.416;13.548;2023-06-19T09:04:37;100945.84;;;22.44;100.00
68594;BME280;55563;52.416;13.548;2023-06-19T09:06:54;100948.66;;;22.47;100.00
68594;BME280;55563;52.416;13.548;2023-06-19T09:08:58;100946.41;;;22.49;100.00
68594;BME280;55563;52.416;13.548;2023-06-19T09:11:02;100952.31;;;22.76;100.00
68594;BME280;55563;52.416;13.548;2023-06-19T09:13:04;100956.50;;;22.65;100.00
68594;BME280;55563;52.416;13.548;2023-06-19T09:15:11;100956.28;;;22.57;100.00
68594;BME280;55563;52.416;13.548;2023-06-19T09:17:17;100956.91;;;22.54;100.00
68594;BME280;55563;52.416;13.548;2023-06-19T09:19:21;100957.50;;;22.60;100.00
68594;BME280;55563;52.416;13.548;2023-06-19T09:21:21;100959.19;;;22.65;100.00
68594;BME280;55563;52.416;13.548;2023-06-19T09:23:24;100956.56;;;22.77;100.00
68594;BME280;55563;52.416;13.548;2023-06-19T09:25:27;100948.97;;;22.79;100.00
68594;BME280;55563;52.416;13.548;2023-06-19T09:27:31;100945.06;;;22.76;100.00
68594;BME280;55563;52.416;13.548;2023-06-19T09:29:36;100947.97;;;22.83;100.00
68594;BME280;55563;52.416;13.548;2023-06-19T09:31:38;100948.00;;;23.08;100.00
68594;BME280;55563;52.416;13.548;2023-06-19T09:33:40;100948.91;;;23.12;100.00
68594;BME280;55563;52.416;13.548;2023-06-19T09:35:41;100954.72;;;23.38;100.00
68594;BME280;55563;52.416;13.548;2023-06-19T09:37:41;100957.84;;;23.40;100.00
68594;BME280;55563;52.416;13.548;2023-06-19T09:39:42;100945.47;;;23.48;100.00
68594;BME280;55563;52.416;13.548;2023-06-19T09:41:46;100948.00;;;23.44;100.00
68594;BME280;55563;52.416;13.548;2023-06-19T09:43:49;100948.91;;;23.12;100.00
68594;BME280;55563;52.416;13.548;2023-06-19T09:45:55;100958.28;;;23.18;100.00
68594;BME280;55563;52.416;13.548;2023-06-19T09:47:56;100951.28;;;23.25;100.00
68594;BME280;55563;52.416;13.548;2023-06-19T09:50:01;100954.03;;;23.17;100.00
68594;BME280;55563;52.416;13.548;2023-06-19T09:52:02;100956.06;;;23.20;100.00
68594;BME280;55563;52.416;13.548;2023-06-19T09:54:03;100955.63;;;23.30;100.00
68594;BME280;55563;52.416;13.548;2023-06-19T09:56:05;100958.41;;;23.45;100.00
68594;BME280;55563;52.416;13.548;2023-06-19T09:58:05;100960.88;;;23.51;100.00
68594;BME280;55563;52.416;13.548;2023-06-19T10:00:08;100970.59;;;23.55;100.00
68594;BME280;55563;52.416;13.548;2023-06-19T10:02:14;100974.72;;;23.65;100.00
68594;BME280;55563;52.416;13.548;2023-06-19T10:04:15;100967.59;;;23.69;100.00
68594;BME280;55563;52.416;13.548;2023-06-19T10:06:17;100972.38;;;23.75;100.00
68594;BME280;55563;52.416;13.548;2023-06-19T10:08:28;100966.38;;;23.54;100.00
68594;BME280;55563;52.416;13.548;2023-06-19T10:10:29;100964.47;;;23.55;100.00
68594;BME280;55563;52.416;13.548;2023-06-19T10:12:45;100952.59;;;23.56;100.00
68594;BME280;55563;52.416;13.548;2023-06-19T10:14:47;100948.84;;;23.44;100.00
68594;BME280;55563;52.416;13.548;2023-06-19T10:16:49;100940.09;;;23.35;100.00
68594;BME280;55563;52.416;13.548;2023-06-19T10:18:50;100932.94;;;23.39;100.00
68594;BME280;55563;52.416;13.548;2023-06-19T10:20:51;100935.16;;;23.37;100.00